sensor_id;sensor_type;location;lat;lon;timestamp;P1;durP1;ratioP1;P2;durP2;ratioP2
56667;SDS011;42542;48.360;10.958;2022-07-29T00:02:14;7.33;;;3.10;;
56667;SDS011;42542;48.360;10.958;2022-07-29T00:05:16;7.00;;;3.40;;
56667;SDS011;42542;48.360;10.958;2022-07-29T00:08:18;7.22;;;3.30;;
56667;SDS011;42542;48.360;10.958;2022-07-29T00:11:20;8.13;;;3.60;;
56667;SDS011;42542;48.360;10.958;2022-07-29T00:14:21;9.57;;;3.70;;
56667;SDS011;42542;48.360;10.958;2022-07-29T00:17:23;7.53;;;3.73;;
56667;SDS011;42542;48.360;10.958;2022-07-29T00:20:26;8.50;;;4.07;;
56667;SDS011;42542;48.360;10.958;2022-07-29T00:23:27;10.27;;;4.13;;
56667;SDS011;42542;48.360;10.958;2022-07-29T00:26:30;7.82;;;3.88;;
56667;SDS011;42542;48.360;10.958;2022-07-29T00:29:32;11.17;;;4.40;;
56667;SDS011;42542;48.360;10.958;2022-07-29T00:32:35;10.47;;;4.37;;
56667;SDS011;42542;48.360;10.958;2022-07-29T00:35:37;8.43;;;4.10;;
56667;SDS011;42542;48.360;10.958;2022-07-29T00:38:48;8.35;;;3.97;;
56667;SDS011;42542;48.360;10.958;2022-07-29T00:41:50;7.40;;;3.90;;
56667;SDS011;42542;48.360;10.958;2022-07-29T00:44:53;7.40;;;3.80;;
56667;SDS011;42542;48.360;10.958;2022-07-29T00:47:55;8.63;;;4.07;;
56667;SDS011;42542;48.360;10.958;2022-07-29T00:50:57;8.63;;;3.80;;
56667;SDS011;42542;48.360;10.958;2022-07-29T00:53:59;10.35;;;4.20;;
56667;SDS011;42542;48.360;10.958;2022-07-29T00:57:01;8.57;;;3.80;;
56667;SDS011;42542;48.360;10.958;2022-07-29T01:00:07;7.30;;;4.00;;
56667;SDS011;42542;48.360;10.958;2022-07-29T01:03:30;7.50;;;3.80;;
56667;SDS011;42542;48.360;10.958;2022-07-29T01:06:32;8.15;;;4.20;;
56667;SDS011;42542;48.360;10.958;2022-07-29T01:09:35;8.45;;;4.22;;
56667;SDS011;42542;48.360;10.958;2022-07-29T01:12:47;9.38;;;4.70;;
56667;SDS011;42542;48.360;10.958;2022-07-29T01:15:54;8.90;;;4.90;;
56667;SDS011;42542;48.360;10.958;2022-07-29T01:29:51;10.35;;;5.95;;
56667;SDS011;42542;48.360;10.958;2022-07-29T01:32:59;11.77;;;5.63;;
56667;SDS011;42542;48.360;10.958;2022-07-29T01:36:06;11.80;;;6.07;;
56667;SDS011;42542;48.360;10.958;2022-07-29T01:39:27;11.70;;;5.90;;
56667;SDS011;42542;48.360;10.958;2022-07-29T01:42:38;10.98;;;6.20;;
56667;SDS011;42542;48.360;10.958;2022-07-29T01:45:56;11.23;;;6.15;;
56667;SDS011;42542;48.360;10.958;2022-07-29T01:49:06;11.40;;;5.73;;
56667;SDS011;42542;48.360;10.958;2022-07-29T01:52:13;10.53;;;5.67;;
56667;SDS011;42542;48.360;10.958;2022-07-29T01:55:22;13.25;;;6.22;;
56667;SDS011;42542;48.360;10.958;2022-07-29T01:58:28;9.32;;;5.47;;
56667;SDS011;42542;48.360;10.958;2022-07-29T02:01:32;11.52;;;5.97;;
56667;SDS011;42542;48.360;10.958;2022-07-29T02:04:36;12.67;;;5.93;;
56667;SDS011;42542;48.360;10.958;2022-07-29T02:07:40;11.43;;;5.67;;
56667;SDS011;42542;48.360;10.958;2022-07-29T02:10:43;10.75;;;5.88;;
56667;SDS011;42542;48.360;10.958;2022-07-29T02:13:46;11.27;;;5.80;;
56667;SDS011;42542;48.360;10.958;2022-07-29T02:16:51;9.40;;;5.65;;
56667;SDS011;42542;48.360;10.958;2022-07-29T02:19:56;11.43;;;5.67;;
56667;SDS011;42542;48.360;10.958;2022-07-29T02:23:00;9.97;;;5.47;;
56667;SDS011;42542;48.360;10.958;2022-07-29T02:26:04;9.88;;;5.57;;
56667;SDS011;42542;48.360;10.958;2022-07-29T02:29:08;9.95;;;5.38;;
56667;SDS011;42542;48.360;10.958;2022-07-29T02:32:13;10.23;;;5.55;;
56667;SDS011;42542;48.360;10.958;2022-07-29T02:35:17;10.97;;;5.90;;
56667;SDS011;42542;48.360;10.958;2022-07-29T02:38:20;10.03;;;5.47;;
56667;SDS011;42542;48.360;10.958;2022-07-29T02:41:46;10.43;;;5.70;;
56667;SDS011;42542;48.360;10.958;2022-07-29T02:44:50;9.75;;;5.40;;
56667;SDS011;42542;48.360;10.958;2022-07-29T02:47:52;9.85;;;5.38;;
56667;SDS011;42542;48.360;10.958;2022-07-29T02:51:01;10.87;;;5.70;;
56667;SDS011;42542;48.360;10.958;2022-07-29T02:54:08;11.33;;;5.40;;
56667;SDS011;42542;48.360;10.958;2022-07-29T02:57:18;12.40;;;5.55;;
56667;SDS011;42542;48.360;10.958;2022-07-29T03:00:24;9.68;;;5.63;;
56667;SDS011;42542;48.360;10.958;2022-07-29T03:03:30;10.88;;;5.45;;
56667;SDS011;42542;48.360;10.958;2022-07-29T03:06:38;9.93;;;5.50;;
56667;SDS011;42542;48.360;10.958;2022-07-29T03:09:41;11.27;;;5.37;;
56667;SDS011;42542;48.360;10.958;2022-07-29T03:12:44;10.95;;;5.30;;
56667;SDS011;42542;48.360;10.958;2022-07-29T03:15:46;11.13;;;5.32;;
56667;SDS011;42542;48.360;10.958;2022-07-29T03:18:49;11.15;;;5.68;;
56667;SDS011;42542;48.360;10.958;2022-07-29T03:21:51;9.90;;;5.33;;
56667;SDS011;42542;48.360;10.958;2022-07-29T03:24:53;9.77;;;5.47;;
56667;SDS011;42542;48.360;10.958;2022-07-29T03:27:55;11.57;;;5.70;;
56667;SDS011;42542;48.360;10.958;2022-07-29T03:30:57;10.45;;;5.50;;
56667;SDS011;42542;48.360;10.958;2022-07-29T03:33:59;12.93;;;5.28;;
56667;SDS011;42542;48.360;10.958;2022-07-29T03:37:01;12.57;;;5.43;;
56667;SDS011;42542;48.360;10.958;2022-07-29T03:40:03;15.90;;;5.13;;
56667;SDS011;42542;48.360;10.958;2022-07-29T03:43:08;11.35;;;4.95;;
56667;SDS011;42542;48.360;10.958;2022-07-29T03:46:12;8.95;;;4.50;;
56667;SDS011;42542;48.360;10.958;2022-07-29T03:49:18;11.98;;;4.72;;
56667;SDS011;42542;48.360;10.958;2022-07-29T03:52:21;12.50;;;4.80;;
56667;SDS011;42542;48.360;10.958;2022-07-29T03:55:23;8.23;;;4.32;;
56667;SDS011;42542;48.360;10.958;2022-07-29T03:58:27;9.13;;;4.95;;
56667;SDS011;42542;48.360;10.958;2022-07-29T04:01:29;8.23;;;4.57;;
56667;SDS011;42542;48.360;10.958;2022-07-29T04:04:35;10.50;;;4.40;;
56667;SDS011;42542;48.360;10.958;2022-07-29T04:07:46;8.87;;;4.17;;
56667;SDS011;42542;48.360;10.958;2022-07-29T04:10:51;8.55;;;4.00;;
56667;SDS011;42542;48.360;10.958;2022-07-29T04:13:53;8.82;;;4.18;;
56667;SDS011;42542;48.360;10.958;2022-07-29T04:16:55;9.07;;;4.07;;
56667;SDS011;42542;48.360;10.958;2022-07-29T04:19:56;8.00;;;4.05;;
56667;SDS011;42542;48.360;10.958;2022-07-29T04:23:05;8.40;;;4.00;;
56667;SDS011;42542;48.360;10.958;2022-07-29T04:26:19;10.18;;;4.43;;
56667;SDS011;42542;48.360;10.958;2022-07-29T04:29:25;8.13;;;4.00;;
56667;SDS011;42542;48.360;10.958;2022-07-29T04:32:29;9.02;;;4.18;;
56667;SDS011;42542;48.360;10.958;2022-07-29T04:35:33;10.65;;;4.15;;
56667;SDS011;42542;48.360;10.958;2022-07-29T04:38:41;8.43;;;3.80;;
56667;SDS011;42542;48.360;10.958;2022-07-29T04:41:51;9.07;;;4.07;;
56667;SDS011;42542;48.360;10.958;2022-07-29T04:44:56;7.97;;;4.22;;
56667;SDS011;42542;48.360;10.958;2022-07-29T04:48:01;9.45;;;4.43;;
56667;SDS011;42542;48.360;10.958;2022-07-29T04:51:03;9.70;;;4.30;;
56667;SDS011;42542;48.360;10.958;2022-07-29T04:54:04;8.37;;;4.30;;
56667;SDS011;42542;48.360;10.958;2022-07-29T04:57:07;9.57;;;4.30;;
56667;SDS011;42542;48.360;10.958;2022-07-29T05:00:09;9.40;;;4.90;;
56667;SDS011;42542;48.360;10.958;2022-07-29T05:03:11;10.55;;;4.80;;
56667;SDS011;42542;48.360;10.958;2022-07-29T05:06:13;9.95;;;4.80;;
56667;SDS011;42542;48.360;10.958;2022-07-29T05:09:14;11.07;;;5.07;;
56667;SDS011;42542;48.360;10.958;2022-07-29T05:12:16;11.17;;;4.90;;
56667;SDS011;42542;48.360;10.958;2022-07-29T05:15:18;11.90;;;5.03;;
56667;SDS011;42542;48.360;10.958;2022-07-29T05:18:19;8.88;;;4.95;;
56667;SDS011;42542;48.360;10.958;2022-07-29T05:21:26;9.35;;;4.70;;
56667;SDS011;42542;48.360;10.958;2022-07-29T05:24:28;10.63;;;4.50;;
56667;SDS011;42542;48.360;10.958;2022-07-29T05:27:29;11.38;;;4.68;;
56667;SDS011;42542;48.360;10.958;2022-07-29T05:30:31;10.15;;;4.85;;
56667;SDS011;42542;48.360;10.958;2022-07-29T05:33:33;9.55;;;4.60;;
56667;SDS011;42542;48.360;10.958;2022-07-29T05:36:37;10.77;;;4.93;;
56667;SDS011;42542;48.360;10.958;2022-07-29T05:39:39;8.37;;;4.40;;
56667;SDS011;42542;48.360;10.958;2022-07-29T05:42:50;9.77;;;4.10;;
56667;SDS011;42542;48.360;10.958;2022-07-29T05:45:52;9.82;;;3.75;;
56667;SDS011;42542;48.360;10.958;2022-07-29T05:48:58;7.63;;;3.85;;
56667;SDS011;42542;48.360;10.958;2022-07-29T05:52:00;8.65;;;4.10;;
56667;SDS011;42542;48.360;10.958;2022-07-29T05:55:02;7.77;;;4.00;;
56667;SDS011;42542;48.360;10.958;2022-07-29T05:58:05;8.13;;;4.20;;
56667;SDS011;42542;48.360;10.958;2022-07-29T06:01:07;9.57;;;4.18;;
56667;SDS011;42542;48.360;10.958;2022-07-29T06:04:08;8.43;;;3.50;;
56667;SDS011;42542;48.360;10.958;2022-07-29T06:07:10;8.90;;;3.70;;
56667;SDS011;42542;48.360;10.958;2022-07-29T06:10:12;7.77;;;3.60;;
56667;SDS011;42542;48.360;10.958;2022-07-29T06:13:14;9.70;;;3.60;;
56667;SDS011;42542;48.360;10.958;2022-07-29T06:16:19;8.85;;;3.50;;
56667;SDS011;42542;48.360;10.958;2022-07-29T06:19:30;10.43;;;3.30;;
56667;SDS011;42542;48.360;10.958;2022-07-29T06:22:32;9.88;;;3.47;;
56667;SDS011;42542;48.360;10.958;2022-07-29T06:25:33;7.67;;;3.30;;
56667;SDS011;42542;48.360;10.958;2022-07-29T06:28:39;7.37;;;3.27;;
56667;SDS011;42542;48.360;10.958;2022-07-29T06:31:41;11.23;;;3.65;;
56667;SDS011;42542;48.360;10.958;2022-07-29T06:34:43;8.48;;;3.70;;
56667;SDS011;42542;48.360;10.958;2022-07-29T06:37:49;8.35;;;3.60;;
56667;SDS011;42542;48.360;10.958;2022-07-29T06:40:55;8.77;;;3.60;;
56667;SDS011;42542;48.360;10.958;2022-07-29T06:44:07;8.50;;;3.90;;
56667;SDS011;42542;48.360;10.958;2022-07-29T06:47:08;7.53;;;3.60;;
56667;SDS011;42542;48.360;10.958;2022-07-29T06:50:10;6.97;;;3.40;;
56667;SDS011;42542;48.360;10.958;2022-07-29T06:53:13;7.43;;;3.70;;
56667;SDS011;42542;48.360;10.958;2022-07-29T06:56:15;7.93;;;3.80;;
56667;SDS011;42542;48.360;10.958;2022-07-29T06:59:16;7.40;;;3.50;;
56667;SDS011;42542;48.360;10.958;2022-07-29T07:02:18;8.10;;;3.35;;
56667;SDS011;42542;48.360;10.958;2022-07-29T07:05:19;7.75;;;3.47;;
56667;SDS011;42542;48.360;10.958;2022-07-29T07:08:21;8.38;;;3.50;;
56667;SDS011;42542;48.360;10.958;2022-07-29T07:11:24;7.40;;;3.37;;
56667;SDS011;42542;48.360;10.958;2022-07-29T07:14:26;7.30;;;3.50;;
56667;SDS011;42542;48.360;10.958;2022-07-29T07:17:29;7.68;;;3.50;;
56667;SDS011;42542;48.360;10.958;2022-07-29T07:20:31;7.07;;;3.70;;
56667;SDS011;42542;48.360;10.958;2022-07-29T07:23:33;7.25;;;3.83;;
56667;SDS011;42542;48.360;10.958;2022-07-29T07:26:34;8.03;;;3.80;;
56667;SDS011;42542;48.360;10.958;2022-07-29T07:29:36;7.37;;;3.70;;
56667;SDS011;42542;48.360;10.958;2022-07-29T07:32:38;7.38;;;3.42;;
56667;SDS011;42542;48.360;10.958;2022-07-29T07:35:40;7.13;;;3.50;;
56667;SDS011;42542;48.360;10.958;2022-07-29T07:38:42;7.28;;;3.47;;
56667;SDS011;42542;48.360;10.958;2022-07-29T07:41:43;7.43;;;3.40;;
56667;SDS011;42542;48.360;10.958;2022-07-29T07:44:45;10.40;;;5.43;;
56667;SDS011;42542;48.360;10.958;2022-07-29T07:48:07;7.60;;;3.20;;
56667;SDS011;42542;48.360;10.958;2022-07-29T07:51:11;7.43;;;3.47;;
56667;SDS011;42542;48.360;10.958;2022-07-29T07:54:12;6.90;;;3.10;;
56667;SDS011;42542;48.360;10.958;2022-07-29T07:57:15;7.30;;;3.00;;
56667;SDS011;42542;48.360;10.958;2022-07-29T08:00:17;7.73;;;3.30;;
56667;SDS011;42542;48.360;10.958;2022-07-29T08:03:23;7.15;;;2.63;;
56667;SDS011;42542;48.360;10.958;2022-07-29T08:06:25;7.40;;;2.90;;
56667;SDS011;42542;48.360;10.958;2022-07-29T08:09:27;8.20;;;3.10;;
56667;SDS011;42542;48.360;10.958;2022-07-29T08:12:31;6.60;;;2.90;;
56667;SDS011;42542;48.360;10.958;2022-07-29T08:15:32;8.27;;;2.80;;
56667;SDS011;42542;48.360;10.958;2022-07-29T08:18:34;6.82;;;2.70;;
56667;SDS011;42542;48.360;10.958;2022-07-29T08:21:35;6.68;;;2.80;;
56667;SDS011;42542;48.360;10.958;2022-07-29T08:24:37;8.55;;;3.28;;
56667;SDS011;42542;48.360;10.958;2022-07-29T08:27:45;8.37;;;3.10;;
56667;SDS011;42542;48.360;10.958;2022-07-29T08:30:47;5.50;;;2.37;;
56667;SDS011;42542;48.360;10.958;2022-07-29T08:33:54;6.03;;;2.78;;
56667;SDS011;42542;48.360;10.958;2022-07-29T08:36:59;5.20;;;2.40;;
56667;SDS011;42542;48.360;10.958;2022-07-29T08:40:02;6.32;;;2.65;;
56667;SDS011;42542;48.360;10.958;2022-07-29T08:43:05;7.10;;;3.10;;
56667;SDS011;42542;48.360;10.958;2022-07-29T08:46:09;6.97;;;2.90;;
56667;SDS011;42542;48.360;10.958;2022-07-29T08:49:11;7.60;;;2.80;;
56667;SDS011;42542;48.360;10.958;2022-07-29T08:52:13;9.13;;;2.92;;
56667;SDS011;42542;48.360;10.958;2022-07-29T08:55:16;7.45;;;2.95;;
56667;SDS011;42542;48.360;10.958;2022-07-29T08:58:21;5.83;;;2.80;;
56667;SDS011;42542;48.360;10.958;2022-07-29T09:01:27;7.77;;;2.97;;
56667;SDS011;42542;48.360;10.958;2022-07-29T09:04:37;6.88;;;3.10;;
56667;SDS011;42542;48.360;10.958;2022-07-29T09:07:39;6.80;;;3.20;;
56667;SDS011;42542;48.360;10.958;2022-07-29T09:10:41;6.78;;;3.03;;
56667;SDS011;42542;48.360;10.958;2022-07-29T09:13:43;6.63;;;3.20;;
56667;SDS011;42542;48.360;10.958;2022-07-29T09:16:46;7.33;;;3.20;;
56667;SDS011;42542;48.360;10.958;2022-07-29T09:20:08;5.93;;;3.25;;
56667;SDS011;42542;48.360;10.958;2022-07-29T09:23:14;7.45;;;3.25;;
56667;SDS011;42542;48.360;10.958;2022-07-29T09:26:27;7.07;;;3.22;;
56667;SDS011;42542;48.360;10.958;2022-07-29T09:29:30;7.97;;;3.10;;
56667;SDS011;42542;48.360;10.958;2022-07-29T09:35:59;7.35;;;3.50;;
56667;SDS011;42542;48.360;10.958;2022-07-29T09:39:08;7.03;;;3.40;;
56667;SDS011;42542;48.360;10.958;2022-07-29T09:42:09;6.45;;;3.10;;
56667;SDS011;42542;48.360;10.958;2022-07-29T09:45:12;7.70;;;3.43;;
56667;SDS011;42542;48.360;10.958;2022-07-29T09:48:27;6.13;;;3.30;;
56667;SDS011;42542;48.360;10.958;2022-07-29T09:51:28;7.43;;;3.17;;
56667;SDS011;42542;48.360;10.958;2022-07-29T09:54:38;7.78;;;3.53;;
56667;SDS011;42542;48.360;10.958;2022-07-29T09:57:40;7.05;;;3.40;;
56667;SDS011;42542;48.360;10.958;2022-07-29T10:00:42;7.10;;;3.47;;
56667;SDS011;42542;48.360;10.958;2022-07-29T10:03:53;8.10;;;3.73;;
56667;SDS011;42542;48.360;10.958;2022-07-29T10:06:55;6.50;;;3.78;;
56667;SDS011;42542;48.360;10.958;2022-07-29T10:10:05;6.53;;;3.30;;
56667;SDS011;42542;48.360;10.958;2022-07-29T10:13:09;10.65;;;3.75;;
56667;SDS011;42542;48.360;10.958;2022-07-29T10:16:16;7.97;;;3.60;;
56667;SDS011;42542;48.360;10.958;2022-07-29T10:19:19;7.50;;;3.50;;
56667;SDS011;42542;48.360;10.958;2022-07-29T10:22:21;6.82;;;3.50;;
56667;SDS011;42542;48.360;10.958;2022-07-29T10:25:44;9.63;;;3.85;;
56667;SDS011;42542;48.360;10.958;2022-07-29T10:28:47;6.80;;;3.40;;
56667;SDS011;42542;48.360;10.958;2022-07-29T10:39:22;6.82;;;3.40;;
56667;SDS011;42542;48.360;10.958;2022-07-29T10:45:20;10.10;;;3.97;;
56667;SDS011;42542;48.360;10.958;2022-07-29T10:48:22;9.57;;;4.40;;
56667;SDS011;42542;48.360;10.958;2022-07-29T10:51:25;7.97;;;3.70;;
56667;SDS011;42542;48.360;10.958;2022-07-29T11:01:28;7.45;;;3.70;;
56667;SDS011;42542;48.360;10.958;2022-07-29T11:20:54;7.70;;;3.80;;
56667;SDS011;42542;48.360;10.958;2022-07-29T11:24:11;8.60;;;4.17;;
56667;SDS011;42542;48.360;10.958;2022-07-29T11:27:32;7.65;;;3.72;;
56667;SDS011;42542;48.360;10.958;2022-07-29T11:30:47;6.80;;;3.70;;
56667;SDS011;42542;48.360;10.958;2022-07-29T11:33:54;6.70;;;3.35;;
56667;SDS011;42542;48.360;10.958;2022-07-29T11:37:16;7.27;;;3.80;;
56667;SDS011;42542;48.360;10.958;2022-07-29T11:40:40;8.33;;;3.73;;
56667;SDS011;42542;48.360;10.958;2022-07-29T11:43:46;9.38;;;3.90;;
56667;SDS011;42542;48.360;10.958;2022-07-29T11:46:51;7.97;;;3.85;;
56667;SDS011;42542;48.360;10.958;2022-07-29T11:49:55;8.68;;;3.70;;
56667;SDS011;42542;48.360;10.958;2022-07-29T11:53:00;11.67;;;3.60;;
56667;SDS011;42542;48.360;10.958;2022-07-29T11:56:09;6.50;;;3.40;;
56667;SDS011;42542;48.360;10.958;2022-07-29T11:59:17;6.43;;;3.33;;
56667;SDS011;42542;48.360;10.958;2022-07-29T12:02:20;8.10;;;3.47;;
56667;SDS011;42542;48.360;10.958;2022-07-29T12:05:41;7.85;;;3.28;;
56667;SDS011;42542;48.360;10.958;2022-07-29T12:08:52;6.57;;;3.30;;
56667;SDS011;42542;48.360;10.958;2022-07-29T12:11:57;7.17;;;3.50;;
56667;SDS011;42542;48.360;10.958;2022-07-29T12:15:12;7.40;;;3.28;;
56667;SDS011;42542;48.360;10.958;2022-07-29T12:18:20;6.78;;;3.00;;
56667;SDS011;42542;48.360;10.958;2022-07-29T12:21:24;6.93;;;3.30;;
56667;SDS011;42542;48.360;10.958;2022-07-29T12:24:41;5.87;;;3.27;;
56667;SDS011;42542;48.360;10.958;2022-07-29T12:27:45;6.73;;;3.20;;
56667;SDS011;42542;48.360;10.958;2022-07-29T12:30:48;7.80;;;3.40;;
56667;SDS011;42542;48.360;10.958;2022-07-29T12:33:52;7.20;;;3.60;;
56667;SDS011;42542;48.360;10.958;2022-07-29T12:36:55;8.43;;;3.50;;
56667;SDS011;42542;48.360;10.958;2022-07-29T12:39:57;6.83;;;3.60;;
56667;SDS011;42542;48.360;10.958;2022-07-29T12:43:12;6.53;;;3.33;;
56667;SDS011;42542;48.360;10.958;2022-07-29T12:46:19;5.90;;;3.40;;
56667;SDS011;42542;48.360;10.958;2022-07-29T12:49:21;7.80;;;3.65;;
56667;SDS011;42542;48.360;10.958;2022-07-29T12:52:27;7.43;;;3.60;;
56667;SDS011;42542;48.360;10.958;2022-07-29T12:55:40;7.63;;;3.47;;
56667;SDS011;42542;48.360;10.958;2022-07-29T12:58:46;6.57;;;3.83;;
56667;SDS011;42542;48.360;10.958;2022-07-29T13:01:51;6.05;;;3.42;;
56667;SDS011;42542;48.360;10.958;2022-07-29T13:04:57;7.43;;;3.63;;
56667;SDS011;42542;48.360;10.958;2022-07-29T13:08:09;7.03;;;3.50;;
56667;SDS011;42542;48.360;10.958;2022-07-29T13:11:29;6.00;;;3.30;;
56667;SDS011;42542;48.360;10.958;2022-07-29T13:14:48;9.33;;;3.10;;
56667;SDS011;42542;48.360;10.958;2022-07-29T13:17:51;8.25;;;3.03;;
56667;SDS011;42542;48.360;10.958;2022-07-29T13:20:52;6.28;;;3.20;;
56667;SDS011;42542;48.360;10.958;2022-07-29T13:23:54;7.63;;;3.00;;
56667;SDS011;42542;48.360;10.958;2022-07-29T13:26:56;7.10;;;3.20;;
56667;SDS011;42542;48.360;10.958;2022-07-29T13:29:59;6.73;;;3.10;;
56667;SDS011;42542;48.360;10.958;2022-07-29T13:33:01;6.00;;;3.00;;
56667;SDS011;42542;48.360;10.958;2022-07-29T13:36:03;6.38;;;3.40;;
56667;SDS011;42542;48.360;10.958;2022-07-29T13:39:05;8.13;;;2.95;;
56667;SDS011;42542;48.360;10.958;2022-07-29T13:42:07;6.40;;;3.10;;
56667;SDS011;42542;48.360;10.958;2022-07-29T13:45:11;7.97;;;2.90;;
56667;SDS011;42542;48.360;10.958;2022-07-29T13:48:13;8.65;;;3.30;;
56667;SDS011;42542;48.360;10.958;2022-07-29T13:51:14;7.28;;;3.20;;
56667;SDS011;42542;48.360;10.958;2022-07-29T13:54:16;6.22;;;3.15;;
56667;SDS011;42542;48.360;10.958;2022-07-29T13:57:17;7.23;;;3.07;;
56667;SDS011;42542;48.360;10.958;2022-07-29T14:00:19;6.73;;;3.10;;
56667;SDS011;42542;48.360;10.958;2022-07-29T14:03:21;7.85;;;3.13;;
56667;SDS011;42542;48.360;10.958;2022-07-29T14:06:22;7.57;;;3.05;;
56667;SDS011;42542;48.360;10.958;2022-07-29T14:09:24;6.13;;;2.92;;
56667;SDS011;42542;48.360;10.958;2022-07-29T14:12:25;9.17;;;3.10;;
56667;SDS011;42542;48.360;10.958;2022-07-29T14:15:27;6.93;;;3.30;;
56667;SDS011;42542;48.360;10.958;2022-07-29T14:18:28;8.07;;;3.22;;
56667;SDS011;42542;48.360;10.958;2022-07-29T14:21:30;5.93;;;3.00;;
56667;SDS011;42542;48.360;10.958;2022-07-29T14:24:33;6.07;;;3.22;;
56667;SDS011;42542;48.360;10.958;2022-07-29T14:27:37;7.87;;;3.10;;
56667;SDS011;42542;48.360;10.958;2022-07-29T14:30:39;9.53;;;3.30;;
56667;SDS011;42542;48.360;10.958;2022-07-29T14:33:41;6.25;;;2.90;;
56667;SDS011;42542;48.360;10.958;2022-07-29T14:36:46;7.57;;;3.30;;
56667;SDS011;42542;48.360;10.958;2022-07-29T14:39:48;6.53;;;3.20;;
56667;SDS011;42542;48.360;10.958;2022-07-29T14:42:49;5.77;;;3.00;;
56667;SDS011;42542;48.360;10.958;2022-07-29T14:45:51;6.67;;;3.20;;
56667;SDS011;42542;48.360;10.958;2022-07-29T14:48:57;6.35;;;3.35;;
56667;SDS011;42542;48.360;10.958;2022-07-29T14:51:59;8.10;;;3.08;;
56667;SDS011;42542;48.360;10.958;2022-07-29T14:55:01;6.60;;;3.10;;
56667;SDS011;42542;48.360;10.958;2022-07-29T14:58:03;8.00;;;3.47;;
56667;SDS011;42542;48.360;10.958;2022-07-29T15:01:13;6.30;;;3.07;;
56667;SDS011;42542;48.360;10.958;2022-07-29T15:04:15;7.22;;;3.10;;
56667;SDS011;42542;48.360;10.958;2022-07-29T15:07:17;8.50;;;3.10;;
56667;SDS011;42542;48.360;10.958;2022-07-29T15:10:19;8.20;;;3.40;;
56667;SDS011;42542;48.360;10.958;2022-07-29T15:13:21;6.67;;;3.40;;
56667;SDS011;42542;48.360;10.958;2022-07-29T15:16:22;6.30;;;3.17;;
56667;SDS011;42542;48.360;10.958;2022-07-29T15:19:25;8.00;;;3.40;;
56667;SDS011;42542;48.360;10.958;2022-07-29T15:22:26;7.95;;;3.47;;
56667;SDS011;42542;48.360;10.958;2022-07-29T15:25:28;6.63;;;3.40;;
56667;SDS011;42542;48.360;10.958;2022-07-29T15:28:30;7.57;;;3.63;;
56667;SDS011;42542;48.360;10.958;2022-07-29T15:31:31;7.97;;;3.30;;
56667;SDS011;42542;48.360;10.958;2022-07-29T15:34:33;7.90;;;3.47;;
56667;SDS011;42542;48.360;10.958;2022-07-29T15:37:36;6.57;;;3.60;;
56667;SDS011;42542;48.360;10.958;2022-07-29T15:40:49;9.07;;;3.85;;
56667;SDS011;42542;48.360;10.958;2022-07-29T15:43:51;6.30;;;3.43;;
56667;SDS011;42542;48.360;10.958;2022-07-29T15:46:52;7.70;;;3.83;;
56667;SDS011;42542;48.360;10.958;2022-07-29T15:50:09;7.00;;;3.70;;
56667;SDS011;42542;48.360;10.958;2022-07-29T15:53:16;7.20;;;3.58;;
56667;SDS011;42542;48.360;10.958;2022-07-29T15:56:17;6.85;;;3.95;;
56667;SDS011;42542;48.360;10.958;2022-07-29T15:59:20;7.17;;;3.87;;
56667;SDS011;42542;48.360;10.958;2022-07-29T16:02:23;8.43;;;4.07;;
56667;SDS011;42542;48.360;10.958;2022-07-29T16:05:24;6.80;;;3.80;;
56667;SDS011;42542;48.360;10.958;2022-07-29T16:08:26;6.70;;;3.80;;
56667;SDS011;42542;48.360;10.958;2022-07-29T16:11:28;7.78;;;4.00;;
56667;SDS011;42542;48.360;10.958;2022-07-29T16:14:29;6.73;;;3.70;;
56667;SDS011;42542;48.360;10.958;2022-07-29T16:17:31;7.43;;;3.90;;
56667;SDS011;42542;48.360;10.958;2022-07-29T16:20:33;7.38;;;4.10;;
56667;SDS011;42542;48.360;10.958;2022-07-29T16:23:34;8.63;;;4.40;;
56667;SDS011;42542;48.360;10.958;2022-07-29T16:26:36;8.95;;;4.57;;
56667;SDS011;42542;48.360;10.958;2022-07-29T16:29:37;8.17;;;4.20;;
56667;SDS011;42542;48.360;10.958;2022-07-29T16:32:39;7.37;;;3.00;;
56667;SDS011;42542;48.360;10.958;2022-07-29T16:35:41;6.05;;;2.70;;
56667;SDS011;42542;48.360;10.958;2022-07-29T16:38:44;5.63;;;2.80;;
56667;SDS011;42542;48.360;10.958;2022-07-29T16:41:47;6.25;;;2.80;;
56667;SDS011;42542;48.360;10.958;2022-07-29T16:44:49;7.83;;;3.20;;
56667;SDS011;42542;48.360;10.958;2022-07-29T16:47:52;6.53;;;3.30;;
56667;SDS011;42542;48.360;10.958;2022-07-29T16:51:01;8.02;;;3.30;;
56667;SDS011;42542;48.360;10.958;2022-07-29T16:54:02;6.47;;;3.08;;
56667;SDS011;42542;48.360;10.958;2022-07-29T16:57:04;6.95;;;3.30;;
56667;SDS011;42542;48.360;10.958;2022-07-29T17:00:06;7.20;;;3.20;;
56667;SDS011;42542;48.360;10.958;2022-07-29T17:03:08;7.70;;;3.03;;
56667;SDS011;42542;48.360;10.958;2022-07-29T17:06:10;7.53;;;3.08;;
56667;SDS011;42542;48.360;10.958;2022-07-29T17:09:12;7.75;;;3.00;;
56667;SDS011;42542;48.360;10.958;2022-07-29T17:12:17;7.50;;;3.10;;
56667;SDS011;42542;48.360;10.958;2022-07-29T17:15:18;6.17;;;2.97;;
56667;SDS011;42542;48.360;10.958;2022-07-29T17:18:20;7.57;;;2.63;;
56667;SDS011;42542;48.360;10.958;2022-07-29T17:21:22;6.53;;;2.67;;
56667;SDS011;42542;48.360;10.958;2022-07-29T17:24:25;6.10;;;2.50;;
56667;SDS011;42542;48.360;10.958;2022-07-29T17:27:27;5.65;;;2.40;;
56667;SDS011;42542;48.360;10.958;2022-07-29T17:30:28;7.53;;;2.50;;
56667;SDS011;42542;48.360;10.958;2022-07-29T17:33:30;7.83;;;2.30;;
56667;SDS011;42542;48.360;10.958;2022-07-29T17:36:31;6.35;;;2.30;;
56667;SDS011;42542;48.360;10.958;2022-07-29T17:39:34;7.25;;;2.60;;
56667;SDS011;42542;48.360;10.958;2022-07-29T17:42:36;6.40;;;2.70;;
56667;SDS011;42542;48.360;10.958;2022-07-29T17:45:37;9.47;;;2.60;;
56667;SDS011;42542;48.360;10.958;2022-07-29T17:48:50;6.60;;;2.50;;
56667;SDS011;42542;48.360;10.958;2022-07-29T17:51:52;6.57;;;1.98;;
56667;SDS011;42542;48.360;10.958;2022-07-29T17:55:00;6.15;;;2.10;;
56667;SDS011;42542;48.360;10.958;2022-07-29T17:58:02;5.60;;;2.00;;
56667;SDS011;42542;48.360;10.958;2022-07-29T18:01:04;5.73;;;2.00;;
56667;SDS011;42542;48.360;10.958;2022-07-29T18:04:06;5.83;;;1.97;;
56667;SDS011;42542;48.360;10.958;2022-07-29T18:07:08;6.90;;;1.90;;
56667;SDS011;42542;48.360;10.958;2022-07-29T18:10:10;5.63;;;2.20;;
56667;SDS011;42542;48.360;10.958;2022-07-29T18:13:12;5.43;;;2.20;;
56667;SDS011;42542;48.360;10.958;2022-07-29T18:16:14;5.93;;;2.27;;
56667;SDS011;42542;48.360;10.958;2022-07-29T18:19:15;6.00;;;2.20;;
56667;SDS011;42542;48.360;10.958;2022-07-29T18:22:17;5.15;;;2.10;;
56667;SDS011;42542;48.360;10.958;2022-07-29T18:25:19;6.15;;;2.25;;
56667;SDS011;42542;48.360;10.958;2022-07-29T18:28:21;7.10;;;2.20;;
56667;SDS011;42542;48.360;10.958;2022-07-29T18:31:22;6.20;;;2.20;;
56667;SDS011;42542;48.360;10.958;2022-07-29T18:34:24;6.27;;;2.13;;
56667;SDS011;42542;48.360;10.958;2022-07-29T18:37:26;5.72;;;2.35;;
56667;SDS011;42542;48.360;10.958;2022-07-29T18:40:47;5.65;;;2.40;;
56667;SDS011;42542;48.360;10.958;2022-07-29T18:43:49;7.72;;;2.70;;
56667;SDS011;42542;48.360;10.958;2022-07-29T18:46:50;7.07;;;2.47;;
56667;SDS011;42542;48.360;10.958;2022-07-29T18:49:52;7.73;;;2.23;;
56667;SDS011;42542;48.360;10.958;2022-07-29T18:52:54;6.25;;;2.47;;
56667;SDS011;42542;48.360;10.958;2022-07-29T18:55:56;5.82;;;2.58;;
56667;SDS011;42542;48.360;10.958;2022-07-29T18:59:00;5.60;;;2.50;;
56667;SDS011;42542;48.360;10.958;2022-07-29T19:02:03;7.07;;;2.60;;